Time;durP1;ratioP1;P1;durP2;ratioP2;P2;SDS_P1;SDS_P2;PMS_P1;PMS_P2;Temp;Humidity;BMP_temperature;BMP_pressure;BME280_temperature;BME280_humidity;BME280_pressure;Samples;Min_cycle;Max_cycle;Signal;HPM_P1;HPM_P2
2022/06/20 00:01:55;;;;;;;3.67;2.40;;;;;;;23.57;46.51;95036.31;4981538;28;20026;-51
2022/06/20 00:04:21;;;;;;;4.30;2.45;;;;;;;23.51;46.32;95041.09;5000958;28;20101;-51
2022/06/20 00:06:46;;;;;;;3.83;2.55;;;;;;;23.54;46.13;95037.34;5000892;28;20038;-51
2022/06/20 00:09:12;;;;;;;3.45;2.33;;;;;;;23.52;46.19;95039.84;5001037;28;20511;-51
2022/06/20 00:11:43;;;;;;;4.03;2.20;;;;;;;23.48;46.41;95040.13;5000253;28;20030;-53
2022/06/20 00:14:17;;;;;;;3.13;2.53;;;;;;;23.45;46.49;95034.94;4963179;28;20173;-52
2022/06/20 00:16:42;;;;;;;4.00;2.70;;;;;;;23.44;46.57;95033.47;4980589;28;20050;-54
2022/06/20 00:19:09;;;;;;;3.33;2.28;;;;;;;23.40;46.64;95038.47;4999374;28;20053;-49
2022/06/20 00:21:35;;;;;;;4.10;2.30;;;;;;;23.40;46.63;95043.91;5011283;28;20039;-51
2022/06/20 00:24:00;;;;;;;3.10;2.35;;;;;;;23.36;47.12;95027.09;5000520;28;20511;-51
2022/06/20 00:26:26;;;;;;;4.35;2.65;;;;;;;23.35;46.99;95033.81;5001266;28;20034;-49
2022/06/20 00:28:51;;;;;;;5.90;2.63;;;;;;;23.35;46.91;95031.09;4984011;28;20128;-51
2022/06/20 00:31:16;;;;;;;4.57;2.70;;;;;;;23.27;46.55;95030.13;5001369;28;20042;-53
2022/06/20 00:33:42;;;;;;;5.10;2.70;;;;;;;23.31;46.65;95027.88;5002112;28;20037;-51
2022/06/20 00:36:07;;;;;;;5.63;2.70;;;;;;;23.27;46.64;95035.59;4999797;28;20033;-51
2022/06/20 00:38:35;;;;;;;4.07;2.72;;;;;;;23.26;46.93;95033.38;4998662;28;20038;-51
2022/06/20 00:41:04;;;;;;;4.13;2.50;;;;;;;23.25;46.67;95037.34;4984657;28;20033;-51
2022/06/20 00:43:35;;;;;;;5.50;2.70;;;;;;;23.21;46.41;95026.00;4966578;28;20406;-50
2022/06/20 00:46:04;;;;;;;3.47;2.80;;;;;;;23.20;46.52;95025.25;4996533;28;20509;-53
2022/06/20 00:48:35;;;;;;;4.85;2.80;;;;;;;23.21;46.32;95024.00;4997337;28;20409;-52
2022/06/20 00:51:04;;;;;;;4.60;2.80;;;;;;;23.18;46.37;95027.72;4983679;28;20048;-49
2022/06/20 00:53:33;;;;;;;3.47;2.33;;;;;;;23.18;46.33;95027.72;4966945;28;20160;-51
2022/06/20 00:56:29;;;;;;;3.50;2.50;;;;;;;23.15;46.40;95028.00;4979452;28;20029;-51
2022/06/20 00:59:05;;;;;;;4.80;2.70;;;;;;;23.10;46.42;95026.81;4983909;28;20076;-51
2022/06/20 01:01:36;;;;;;;3.03;2.47;;;;;;;23.08;46.81;95021.16;4980730;28;20022;-53
2022/06/20 01:04:10;;;;;;;3.65;2.30;;;;;;;23.05;46.78;95030.31;5000502;28;20764;-56
2022/06/20 01:06:39;;;;;;;5.57;2.60;;;;;;;23.03;46.36;95024.66;4998092;28;20022;-51
2022/06/20 01:09:09;;;;;;;4.18;2.30;;;;;;;22.98;46.86;95030.88;4965838;28;20034;-50
2022/06/20 01:11:48;;;;;;;3.40;2.45;;;;;;;23.04;46.66;95023.38;5000696;28;20026;-52
2022/06/20 01:14:28;;;;;;;3.80;2.45;;;;;;;23.02;46.03;95019.72;4981739;28;20053;-51
2022/06/20 01:16:56;;;;;;;5.32;2.45;;;;;;;22.95;46.40;95015.53;4996780;28;20050;-55
2022/06/20 01:19:36;;;;;;;7.50;2.60;;;;;;;22.94;46.47;95019.53;4964687;28;20027;-51
2022/06/20 01:22:06;;;;;;;4.35;2.45;;;;;;;22.90;46.67;95016.28;5010069;28;20033;-52
2022/06/20 01:24:35;;;;;;;4.32;2.10;;;;;;;22.88;46.92;95015.31;4980372;28;20050;-55
2022/06/20 01:27:18;;;;;;;3.80;2.30;;;;;;;22.86;46.66;95012.38;5002369;28;20129;-56
2022/06/20 01:29:43;;;;;;;5.45;2.15;;;;;;;22.86;47.17;95011.63;4985808;28;20030;-51
2022/06/20 01:32:09;;;;;;;3.90;2.40;;;;;;;22.86;46.88;95006.19;4986808;28;20018;-51
2022/06/20 01:34:34;;;;;;;4.55;2.22;;;;;;;22.81;47.06;95004.97;4984129;28;20056;-51
2022/06/20 01:39:46;;;;;;;4.57;2.30;;;;;;;22.77;47.05;95020.09;4986242;28;20136;-51
2022/06/20 01:42:21;;;;;;;5.40;2.42;;;;;;;22.79;47.34;95012.91;5005682;28;20472;-53
2022/06/20 01:45:03;;;;;;;4.47;2.40;;;;;;;22.71;47.31;95011.22;4963309;28;20044;-51
2022/06/20 01:47:29;;;;;;;3.45;2.10;;;;;;;22.76;47.40;95018.63;4980636;28;20099;-53
2022/06/20 01:49:56;;;;;;;4.80;2.45;;;;;;;22.71;47.39;95022.13;4979843;28;20591;-53
2022/06/20 01:52:41;;;;;;;4.63;2.50;;;;;;;22.77;47.04;95006.50;4963374;28;20026;-52
2022/06/20 01:55:15;;;;;;;4.07;2.40;;;;;;;22.74;47.13;95010.22;4948413;28;20109;-51
2022/06/20 01:57:42;;;;;;;3.58;2.60;;;;;;;22.75;47.23;95011.69;4948366;28;20509;-52
2022/06/20 02:00:14;;;;;;;4.90;2.65;;;;;;;22.69;46.99;95016.41;4969483;28;20080;-52
2022/06/20 02:02:42;;;;;;;5.88;3.17;;;;;;;22.66;47.45;95012.00;4980908;28;20053;-53
2022/06/20 02:05:09;;;;;;;4.82;2.10;;;;;;;22.66;47.42;95009.25;4962609;28;20038;-52
2022/06/20 02:07:34;;;;;;;4.32;2.55;;;;;;;22.65;47.35;95005.81;4950589;28;20034;-51
2022/06/20 02:10:03;;;;;;;3.88;2.25;;;;;;;22.65;47.19;95013.25;4964667;28;20034;-51
2022/06/20 02:12:30;;;;;;;4.90;2.42;;;;;;;22.64;47.56;95011.75;4981579;28;20042;-56
2022/06/20 02:14:57;;;;;;;3.03;2.30;;;;;;;22.64;47.42;95017.19;4982070;28;20049;-52
2022/06/20 02:17:25;;;;;;;4.70;2.47;;;;;;;22.60;47.83;95011.28;4966440;28;20113;-54
2022/06/20 02:19:52;;;;;;;4.88;2.38;;;;;;;22.55;47.44;95003.91;4950441;28;20034;-50
2022/06/20 02:22:18;;;;;;;3.30;2.40;;;;;;;22.50;47.75;95005.41;4962066;28;20014;-55
2022/06/20 02:24:46;;;;;;;3.80;2.42;;;;;;;22.52;47.92;95011.06;4968768;28;20029;-51
2022/06/20 02:27:33;;;;;;;3.70;2.20;;;;;;;22.59;47.34;95015.25;4966408;28;20153;-50
2022/06/20 02:30:01;;;;;;;3.55;2.38;;;;;;;22.53;47.81;95011.84;4976659;28;20045;-50
2022/06/20 02:32:27;;;;;;;4.15;2.20;;;;;;;22.51;47.68;95011.56;4994683;28;20007;-50
2022/06/20 02:34:53;;;;;;;3.65;2.50;;;;;;;22.49;47.75;95000.47;4967469;28;20022;-51
2022/06/20 02:37:23;;;;;;;4.53;2.22;;;;;;;22.50;47.57;94996.50;4960866;28;20513;-53
2022/06/20 02:39:49;;;;;;;5.45;2.28;;;;;;;22.42;47.73;95001.03;4964278;28;20501;-51
2022/06/20 02:42:20;;;;;;;3.92;2.67;;;;;;;22.45;47.70;94997.25;4964608;28;20030;-52
2022/06/20 02:44:47;;;;;;;4.70;2.38;;;;;;;22.41;47.43;95001.53;4946907;28;20038;-51
2022/06/20 02:47:12;;;;;;;4.82;2.15;;;;;;;22.39;47.56;94999.31;4963525;28;20076;-51
2022/06/20 02:49:38;;;;;;;5.20;2.40;;;;;;;22.35;47.81;95000.81;4963264;28;20034;-55
2022/06/20 02:52:04;;;;;;;3.53;2.45;;;;;;;22.36;47.85;94992.16;4961916;28;20101;-52
2022/06/20 02:54:30;;;;;;;3.83;2.10;;;;;;;22.34;47.65;94989.16;4966416;28;20030;-52
2022/06/20 02:57:01;;;;;;;4.22;2.38;;;;;;;22.32;47.56;94997.09;4966086;28;20064;-57
2022/06/20 02:59:29;;;;;;;2.72;2.00;;;;;;;22.33;47.49;95004.03;4963742;28;20041;-52
2022/06/20 03:02:15;;;;;;;2.75;2.15;;;;;;;22.29;47.66;95003.53;4964551;28;20034;-52
2022/06/20 03:04:42;;;;;;;4.88;2.20;;;;;;;22.27;47.86;94995.16;4966107;28;20049;-55
2022/06/20 03:07:16;;;;;;;2.72;2.03;;;;;;;22.26;47.84;94999.09;4950343;28;20029;-55
2022/06/20 03:09:43;;;;;;;3.13;2.15;;;;;;;22.24;47.87;94996.16;4979469;28;20056;-51
2022/06/20 03:12:09;;;;;;;4.82;2.50;;;;;;;22.25;47.95;95003.06;4981488;28;20052;-53
2022/06/20 03:14:38;;;;;;;4.47;2.10;;;;;;;22.24;47.85;94996.16;4980272;28;20042;-52
2022/06/20 03:17:04;;;;;;;2.60;1.95;;;;;;;22.25;47.79;95002.34;4981432;28;20018;-54
2022/06/20 03:19:32;;;;;;;3.75;2.50;;;;;;;22.21;48.06;95002.59;4960537;28;20026;-53
2022/06/20 03:22:02;;;;;;;3.63;2.20;;;;;;;22.21;47.91;94991.72;4979237;28;20022;-51
2022/06/20 03:24:28;;;;;;;4.00;2.40;;;;;;;22.17;47.93;94998.63;4966292;28;20022;-53
2022/06/20 03:26:54;;;;;;;4.25;2.28;;;;;;;22.19;47.97;94994.16;4962834;28;21819;-57
2022/06/20 03:29:19;;;;;;;3.45;2.20;;;;;;;22.21;47.75;94999.88;4979665;28;20034;-51
2022/06/20 03:31:45;;;;;;;3.20;2.20;;;;;;;22.20;48.12;95001.09;4961327;28;20444;-54
2022/06/20 03:34:12;;;;;;;4.13;2.20;;;;;;;22.29;48.01;95003.53;4980306;28;20022;-53
2022/06/20 03:36:37;;;;;;;3.20;2.50;;;;;;;22.31;47.83;94995.63;4963313;28;20022;-54
2022/06/20 03:39:04;;;;;;;4.32;2.05;;;;;;;22.33;47.99;94989.66;4976084;28;20029;-54
2022/06/20 03:41:29;;;;;;;4.47;2.50;;;;;;;22.35;47.88;94995.38;4964321;28;20335;-53
2022/06/20 03:44:07;;;;;;;3.20;2.17;;;;;;;22.40;47.87;95000.75;4991909;28;20042;-56
2022/06/20 03:46:57;;;;;;;3.60;2.67;;;;;;;22.42;48.09;95012.63;5014603;28;20033;-56
2022/06/20 03:49:33;;;;;;;6.65;2.45;;;;;;;22.50;47.62;95007.41;4997432;28;20030;-53
2022/06/20 03:52:18;;;;;;;3.60;2.40;;;;;;;22.58;47.44;95008.34;4978886;28;20267;-54
2022/06/20 03:55:22;;;;;;;5.50;2.38;;;;;;;22.61;47.33;95007.31;4980686;28;20026;-51
2022/06/20 03:57:55;;;;;;;3.92;2.60;;;;;;;22.68;47.41;95012.25;4983432;28;20659;-54
2022/06/20 04:00:39;;;;;;;5.20;2.30;;;;;;;22.85;46.94;95012.88;4965369;28;20124;-54
2022/06/20 04:03:22;;;;;;;4.97;2.60;;;;;;;22.94;46.96;95010.59;4980291;28;20033;-56
2022/06/20 04:05:52;;;;;;;5.18;2.28;;;;;;;23.05;46.31;95008.53;5002279;28;20125;-56
2022/06/20 04:08:24;;;;;;;4.35;2.50;;;;;;;23.22;45.89;95009.13;5011687;28;20512;-58
2022/06/20 04:10:59;;;;;;;3.35;2.30;;;;;;;23.33;46.03;95017.22;4981816;28;20026;-54
2022/06/20 04:13:26;;;;;;;5.10;2.40;;;;;;;23.39;45.52;95021.38;4998613;28;20026;-52
2022/06/20 04:16:13;;;;;;;5.70;2.65;;;;;;;23.51;45.19;95003.69;4980693;28;20052;-57
2022/06/20 04:18:38;;;;;;;8.82;5.85;;;;;;;23.52;45.62;94996.22;5000292;28;20061;-52
2022/06/20 04:21:12;;;;;;;10.52;4.90;;;;;;;23.58;44.72;94988.75;5001989;28;20061;-52
2022/06/20 04:24:15;;;;;;;9.80;6.05;;;;;;;23.62;44.50;94994.66;5001358;28;20117;-53
2022/06/20 04:26:49;;;;;;;7.10;4.70;;;;;;;23.79;44.50;94989.78;4974334;28;20091;-56
2022/06/20 04:29:41;;;;;;;6.93;4.63;;;;;;;23.84;44.24;94994.44;4995103;28;20527;-58
2022/06/20 04:32:13;;;;;;;5.43;3.97;;;;;;;23.89;44.14;94992.38;4975493;28;20053;-61
2022/06/20 04:34:44;;;;;;;4.95;4.03;;;;;;;23.98;44.20;95005.69;4981956;28;20022;-51
2022/06/20 04:37:18;;;;;;;5.90;3.83;;;;;;;24.00;43.85;94997.72;4980981;28;20049;-55
2022/06/20 04:40:06;;;;;;;6.25;3.53;;;;;;;24.14;43.27;95004.00;4978345;28;20045;-57
2022/06/20 04:42:39;;;;;;;7.70;3.83;;;;;;;24.13;43.39;95000.53;4997880;28;20034;-57
2022/06/20 04:45:19;;;;;;;6.78;3.55;;;;;;;24.18;43.21;94997.00;4980855;28;20034;-55
2022/06/20 04:47:56;;;;;;;5.20;3.40;;;;;;;24.16;43.23;94999.50;4980374;28;20033;-55
2022/06/20 04:50:23;;;;;;;6.45;3.92;;;;;;;24.23;43.12;94988.03;4969141;28;20496;-59
2022/06/20 04:52:50;;;;;;;5.07;3.85;;;;;;;24.34;42.85;94987.19;5014315;28;20026;-59
2022/06/20 04:55:16;;;;;;;6.90;4.43;;;;;;;24.54;42.61;94971.75;5000943;28;20401;-55
2022/06/20 04:57:42;;;;;;;5.72;3.67;;;;;;;24.54;42.59;94976.47;4999200;28;20029;-54
2022/06/20 05:00:14;;;;;;;5.72;3.92;;;;;;;24.51;42.96;94980.97;5002539;28;20058;-55
2022/06/20 05:02:39;;;;;;;5.78;3.80;;;;;;;24.56;42.60;94976.69;5017452;28;20030;-56
2022/06/20 05:05:05;;;;;;;7.95;4.07;;;;;;;24.59;42.97;94975.66;5006400;28;20492;-53
2022/06/20 05:07:35;;;;;;;5.35;3.40;;;;;;;24.64;43.09;94972.13;5018212;28;20038;-53
2022/06/20 05:10:39;;;;;;;7.80;3.80;;;;;;;24.67;43.17;94973.81;4986791;28;20022;-53
2022/06/20 05:13:11;;;;;;;4.68;3.72;;;;;;;24.59;42.90;94965.47;4938669;29;20046;-61
2022/06/20 05:15:40;;;;;;;6.15;3.40;;;;;;;24.84;42.27;94978.50;4990573;28;20045;-57
2022/06/20 05:18:28;;;;;;;6.07;3.50;;;;;;;24.90;42.46;94979.16;5001045;28;20033;-54
2022/06/20 05:20:56;;;;;;;5.40;4.10;;;;;;;24.98;42.19;94980.03;4987526;28;20124;-57
2022/06/20 05:23:43;;;;;;;7.70;3.90;;;;;;;25.00;42.33;94982.25;5012910;28;20129;-52
2022/06/20 05:26:10;;;;;;;5.82;3.80;;;;;;;25.18;41.92;94976.75;4985803;28;20228;-59
2022/06/20 05:28:36;;;;;;;4.75;3.60;;;;;;;25.11;42.23;94987.53;4989861;28;20217;-53
2022/06/20 05:31:02;;;;;;;6.68;4.30;;;;;;;25.19;42.23;94982.97;5002704;28;20030;-53
2022/06/20 05:33:32;;;;;;;7.07;3.72;;;;;;;25.25;42.30;94976.13;5005277;28;20032;-52
2022/06/20 05:35:59;;;;;;;;;;;;;;;25.14;42.88;94984.53;4969278;28;20109;-56
2022/06/20 05:38:26;;;;;;;6.15;3.88;;;;;;;25.34;42.39;94978.47;5003762;28;19920;-56
2022/06/20 05:40:54;;;;;;;6.50;3.92;;;;;;;25.26;41.50;94977.63;5004548;28;20096;-52
2022/06/20 05:43:20;;;;;;;5.57;3.20;;;;;;;25.18;42.48;94971.28;5001756;28;20782;-54
2022/06/20 05:45:53;;;;;;;10.18;4.07;;;;;;;25.34;41.51;94978.47;5003026;28;20029;-52
2022/06/20 05:48:19;;;;;;;5.63;3.63;;;;;;;25.48;41.67;94977.22;4968290;28;20049;-60
2022/06/20 05:50:46;;;;;;;4.95;3.25;;;;;;;25.51;42.03;94976.19;4982052;28;20170;-56
2022/06/20 05:53:16;;;;;;;6.72;4.22;;;;;;;25.63;41.47;94977.47;4984330;28;20338;-53
2022/06/20 05:55:44;;;;;;;4.78;3.58;;;;;;;25.60;41.57;94978.50;4970289;28;20033;-59
2022/06/20 05:58:14;;;;;;;4.40;3.20;;;;;;;25.70;41.16;94979.59;4988838;28;20099;-57
2022/06/20 06:00:39;;;;;;;5.22;3.20;;;;;;;25.82;40.67;94974.13;4969824;28;20052;-59
2022/06/20 06:03:10;;;;;;;5.93;3.67;;;;;;;25.77;40.69;94976.22;4971095;28;20026;-57
2022/06/20 06:05:40;;;;;;;6.65;3.53;;;;;;;25.80;40.58;94973.91;4968070;28;20172;-57
2022/06/20 06:08:39;;;;;;;5.80;4.15;;;;;;;25.79;40.77;94969.69;5000124;28;20041;-63
2022/06/20 06:11:20;;;;;;;10.03;3.70;;;;;;;25.89;40.73;94973.50;4968261;28;20121;-59
2022/06/20 06:14:04;;;;;;;5.20;3.58;;;;;;;26.00;40.54;94970.53;4999661;28;20568;-52
2022/06/20 06:16:48;;;;;;;4.88;3.40;;;;;;;25.96;40.39;94966.66;4983550;28;20482;-58
2022/06/20 06:19:20;;;;;;;8.20;3.53;;;;;;;26.06;40.47;94965.69;5001706;28;20041;-55
2022/06/20 06:21:47;;;;;;;6.75;3.25;;;;;;;26.01;40.59;94963.81;4999949;28;20022;-53
2022/06/20 06:24:14;;;;;;;5.07;3.20;;;;;;;26.02;40.98;94965.28;4969478;28;20042;-54
2022/06/20 06:26:40;;;;;;;4.25;2.95;;;;;;;26.10;40.65;94966.13;5003103;28;20028;-52
2022/06/20 06:29:05;;;;;;;3.58;2.80;;;;;;;26.16;40.32;94964.00;4994676;28;20413;-55
2022/06/20 06:31:33;;;;;;;5.60;3.05;;;;;;;26.35;40.03;94954.41;5007050;28;20520;-58
2022/06/20 06:34:17;;;;;;;6.20;2.78;;;;;;;26.43;40.09;94962.72;4963895;28;20026;-50
2022/06/20 06:36:49;;;;;;;6.57;3.50;;;;;;;26.56;39.71;94952.47;4999279;28;20038;-54
2022/06/20 06:39:33;;;;;;;4.57;3.00;;;;;;;26.54;39.84;94948.78;4965652;28;20041;-60
2022/06/20 06:42:01;;;;;;;5.57;3.20;;;;;;;26.46;39.78;94950.72;4996616;28;20025;-55
2022/06/20 06:44:37;;;;;;;4.53;3.30;;;;;;;26.47;39.86;94938.47;4980769;28;20045;-53
2022/06/20 06:47:03;;;;;;;4.85;3.03;;;;;;;26.60;39.62;94941.19;4982957;28;20026;-52
2022/06/20 06:49:39;;;;;;;5.57;3.28;;;;;;;26.73;39.53;94938.41;5001886;28;20080;-56
2022/06/20 06:52:09;;;;;;;8.30;3.63;;;;;;;26.58;39.73;94927.28;5000128;28;20582;-55
2022/06/20 06:54:41;;;;;;;;;;;;;;;26.75;39.50;94925.63;5000823;28;20057;-58
2022/06/20 06:57:31;;;;;;;8.68;3.25;;;;;;;26.83;39.33;94918.19;4998455;28;19921;-55
2022/06/20 07:00:05;;;;;;;4.80;3.33;;;;;;;26.91;39.31;94917.03;4984455;28;20048;-55
2022/06/20 07:02:39;;;;;;;7.22;3.38;;;;;;;26.79;39.88;94915.81;5000664;28;20771;-52
2022/06/20 07:05:16;;;;;;;4.50;3.25;;;;;;;26.86;39.49;94904.19;4983187;28;20022;-54
2022/06/20 07:07:44;;;;;;;7.10;3.00;;;;;;;26.76;39.70;94905.91;4982984;28;20029;-53
2022/06/20 07:10:22;;;;;;;5.90;3.17;;;;;;;26.88;39.34;94907.13;4985438;28;20225;-53
2022/06/20 07:12:51;;;;;;;4.70;2.97;;;;;;;26.83;39.71;94905.25;4999013;28;20033;-54
2022/06/20 07:15:16;;;;;;;7.00;3.20;;;;;;;26.88;39.62;94898.16;4999983;28;20030;-54
2022/06/20 07:18:02;;;;;;;5.88;3.22;;;;;;;26.91;39.51;94900.59;4992107;28;20042;-56
2022/06/20 07:20:30;;;;;;;5.80;3.08;;;;;;;26.97;39.52;94903.94;4966727;28;20602;-58
2022/06/20 07:22:56;;;;;;;7.88;3.00;;;;;;;27.18;39.16;94895.72;4965991;28;20034;-59
2022/06/20 07:25:34;;;;;;;5.75;3.25;;;;;;;27.24;38.28;94894.28;4966933;28;20033;-52
2022/06/20 07:28:16;;;;;;;6.35;3.20;;;;;;;27.15;38.76;94889.28;4971112;28;20033;-57
2022/06/20 07:30:45;;;;;;;4.78;3.30;;;;;;;27.40;38.95;94884.91;5010664;28;20528;-53
2022/06/20 07:33:17;;;;;;;7.80;4.57;;;;;;;27.57;38.72;94887.97;4981954;28;20038;-50
2022/06/20 07:35:45;;;;;;;3.63;2.92;;;;;;;27.46;38.22;94893.72;4984957;28;20041;-51
2022/06/20 07:38:31;;;;;;;9.25;3.63;;;;;;;27.55;38.18;94890.47;4999493;28;20544;-52
2022/06/20 07:41:02;;;;;;;5.53;3.55;;;;;;;27.60;38.12;94886.88;5000748;28;20699;-52
2022/06/20 07:43:53;;;;;;;6.75;3.72;;;;;;;27.66;37.92;94887.47;5006486;28;20123;-51
2022/06/20 07:46:23;;;;;;;5.63;3.50;;;;;;;27.73;38.32;94894.97;4997911;28;20026;-56
2022/06/20 07:48:49;;;;;;;7.47;3.50;;;;;;;27.74;38.57;94897.94;4985312;28;20029;-54
2022/06/20 07:51:38;;;;;;;6.82;3.17;;;;;;;27.78;38.12;94892.81;4983951;28;20035;-50
2022/06/20 07:54:23;;;;;;;5.68;3.50;;;;;;;27.92;38.27;94891.44;4979471;28;20034;-52
2022/06/20 07:56:57;;;;;;;9.48;4.25;;;;;;;27.83;37.84;94889.22;4982065;28;20033;-57
2022/06/20 07:59:50;;;;;;;5.82;3.63;;;;;;;28.08;37.55;94887.47;4980465;28;20088;-53
2022/06/20 08:02:19;;;;;;;6.63;3.75;;;;;;;28.16;36.81;94882.78;4985421;28;20045;-56
2022/06/20 08:04:46;;;;;;;6.63;3.35;;;;;;;28.06;37.22;94887.28;4980204;28;20029;-54
2022/06/20 08:07:40;;;;;;;4.60;3.20;;;;;;;28.27;36.37;94882.47;4980561;28;20859;-53
2022/06/20 08:10:20;;;;;;;8.60;3.70;;;;;;;28.23;36.94;94882.78;4983531;28;20520;-52
2022/06/20 08:12:49;;;;;;;5.90;3.28;;;;;;;28.04;36.54;94880.88;4998349;28;20062;-52
2022/06/20 08:15:21;;;;;;;7.55;2.70;;;;;;;28.34;35.88;94870.72;4983650;28;20101;-53
2022/06/20 08:17:46;;;;;;;5.38;3.10;;;;;;;28.37;36.27;94875.13;4980394;28;20028;-56
2022/06/20 08:20:12;;;;;;;5.22;3.13;;;;;;;28.48;35.33;94863.84;5005305;28;20782;-53
2022/06/20 08:22:55;;;;;;;9.50;3.40;;;;;;;28.48;35.72;94869.31;4968583;28;20044;-52
2022/06/20 08:25:34;;;;;;;7.68;4.03;;;;;;;28.57;34.95;94866.78;4974261;28;20029;-55
2022/06/20 08:28:10;;;;;;;9.07;4.13;;;;;;;28.66;35.28;94868.25;5000999;28;20120;-51
2022/06/20 08:30:42;;;;;;;6.22;3.30;;;;;;;28.62;34.77;94863.09;5000918;28;20048;-53
2022/06/20 08:33:16;;;;;;;4.90;2.72;;;;;;;28.60;35.16;94862.22;4999379;28;20754;-52
2022/06/20 08:35:53;;;;;;;7.45;3.22;;;;;;;28.72;34.87;94866.81;5001305;28;20184;-55
2022/06/20 08:38:27;;;;;;;6.10;2.88;;;;;;;28.66;35.07;94857.28;5003065;28;20093;-62
2022/06/20 08:41:27;;;;;;;5.28;2.70;;;;;;;28.77;34.88;94858.41;4987983;28;20044;-55
2022/06/20 08:44:13;;;;;;;;;;;;;;;28.87;33.98;94862.06;4985603;28;20053;-52
2022/06/20 08:47:02;;;;;;;6.18;2.88;;;;;;;28.73;35.18;94858.03;4992642;28;19921;-52
2022/06/20 08:49:33;;;;;;;4.65;2.60;;;;;;;28.72;34.42;94852.34;4990721;28;20481;-54
2022/06/20 08:52:46;;;;;;;4.38;2.25;;;;;;;28.74;34.84;94859.50;5003655;28;20120;-53
2022/06/20 08:55:17;;;;;;;3.28;2.15;;;;;;;28.78;34.31;94853.63;4959895;28;20042;-55
2022/06/20 08:57:45;;;;;;;5.80;2.30;;;;;;;28.80;33.60;94851.81;5002894;28;20034;-55
2022/06/20 09:00:26;;;;;;;5.25;2.00;;;;;;;28.79;32.96;94861.34;5003868;28;20030;-51
2022/06/20 09:02:58;;;;;;;3.60;1.90;;;;;;;28.97;31.69;94857.50;4986769;28;20703;-52
2022/06/20 09:05:44;;;;;;;3.88;1.70;;;;;;;29.03;31.46;94863.53;5001982;28;20107;-52
2022/06/20 09:08:30;;;;;;;2.70;2.00;;;;;;;28.98;31.48;94861.69;5003668;28;20034;-53
2022/06/20 09:10:56;;;;;;;3.13;1.80;;;;;;;29.07;31.10;94841.91;4982011;28;20057;-53
2022/06/20 09:13:59;;;;;;;3.65;1.88;;;;;;;28.99;32.17;94846.66;5002204;28;20057;-52
2022/06/20 09:16:52;;;;;;;3.03;1.60;;;;;;;29.01;31.91;94833.09;5000054;28;20112;-56
2022/06/20 09:19:42;;;;;;;2.38;1.70;;;;;;;29.09;31.27;94839.34;5000646;28;20033;-59
2022/06/20 09:22:32;;;;;;;2.63;1.60;;;;;;;29.10;31.81;94829.78;5000411;28;20120;-53
2022/06/20 09:25:01;;;;;;;3.92;1.50;;;;;;;29.15;31.58;94820.63;4965084;28;20025;-52
2022/06/20 09:27:57;;;;;;;2.95;1.67;;;;;;;29.21;32.04;94818.44;4999465;28;20048;-57
2022/06/20 09:30:40;;;;;;;4.88;1.63;;;;;;;29.30;31.44;94815.13;4965616;28;20045;-50
2022/06/20 09:33:27;;;;;;;2.83;1.80;;;;;;;29.32;31.50;94820.81;4987167;28;20082;-53
2022/06/20 09:36:47;;;;;;;4.05;1.50;;;;;;;29.25;31.76;94818.81;4983017;28;20479;-51
2022/06/20 09:39:12;;;;;;;1.95;1.40;;;;;;;29.22;31.59;94822.63;4902478;29;20582;-52
2022/06/20 09:42:15;;;;;;;2.88;1.80;;;;;;;29.38;31.53;94821.34;4991171;28;20045;-56
2022/06/20 09:44:49;;;;;;;2.40;1.65;;;;;;;29.29;31.80;94819.16;5002623;28;20109;-55
2022/06/20 09:47:36;;;;;;;2.63;1.75;;;;;;;29.42;31.88;94810.72;4974423;28;20033;-52
2022/06/20 09:50:26;;;;;;;3.00;1.63;;;;;;;29.36;31.17;94815.69;4981492;28;20557;-57
2022/06/20 09:53:10;;;;;;;;;;;;;;;29.39;31.74;94822.84;5001934;28;20021;-55
2022/06/20 09:56:12;;;;;;;3.05;1.67;;;;;;;29.35;31.69;94814.22;5003319;28;19923;-52
2022/06/20 09:59:04;;;;;;;3.13;1.55;;;;;;;29.46;31.61;94816.56;5002573;28;20160;-58
2022/06/20 10:01:42;;;;;;;2.33;1.40;;;;;;;29.50;29.65;94816.94;4977181;28;20046;-56
2022/06/20 10:04:07;;;;;;;3.72;1.30;;;;;;;29.55;29.49;94813.22;5002532;28;20057;-57
2022/06/20 10:06:44;;;;;;;2.15;1.40;;;;;;;29.42;29.44;94805.94;5003015;28;20058;-60
2022/06/20 10:09:31;;;;;;;1.83;1.35;;;;;;;29.42;29.71;94799.72;4999842;28;20026;-54
2022/06/20 10:12:20;;;;;;;2.00;1.25;;;;;;;29.51;29.23;94808.13;4995825;28;20489;-53
2022/06/20 10:14:54;;;;;;;3.40;1.63;;;;;;;29.53;29.42;94799.31;4998241;28;20068;-60
2022/06/20 10:17:23;;;;;;;4.45;1.30;;;;;;;29.51;29.82;94799.13;4984632;28;20038;-52
2022/06/20 10:19:48;;;;;;;2.78;1.35;;;;;;;29.54;29.21;94800.78;4983767;28;20037;-56
2022/06/20 10:22:20;;;;;;;3.75;1.23;;;;;;;29.52;29.64;94798.59;5002227;28;20034;-54
2022/06/20 10:25:06;;;;;;;3.65;1.30;;;;;;;29.51;29.11;94801.88;4980629;28;20056;-51
2022/06/20 10:28:10;;;;;;;2.95;1.48;;;;;;;29.41;29.47;94792.72;4984833;28;20121;-58
2022/06/20 10:30:45;;;;;;;2.72;1.40;;;;;;;29.51;29.36;94796.38;5002089;28;20068;-52
2022/06/20 10:33:45;;;;;;;2.50;1.35;;;;;;;29.45;29.78;94790.34;4967035;28;20109;-54
2022/06/20 10:36:15;;;;;;;2.58;1.42;;;;;;;29.53;30.46;94788.28;5001385;28;20045;-53
2022/06/20 10:38:42;;;;;;;2.33;1.35;;;;;;;29.59;29.58;94791.56;4980679;28;20068;-60
2022/06/20 10:41:23;;;;;;;2.95;1.45;;;;;;;29.50;29.75;94787.38;5000962;28;20124;-52
2022/06/20 10:43:58;;;;;;;2.55;1.83;;;;;;;29.70;29.89;94789.13;4986297;28;20126;-52
2022/06/20 10:46:46;;;;;;;2.00;1.55;;;;;;;29.79;29.84;94783.81;4964879;28;20101;-53
2022/06/20 10:49:45;;;;;;;1.55;1.20;;;;;;;29.69;29.84;94785.66;4965300;28;20440;-54
2022/06/20 10:52:13;;;;;;;2.60;1.20;;;;;;;29.73;29.43;94775.00;5001338;28;20053;-54
2022/06/20 10:54:54;;;;;;;2.10;1.60;;;;;;;29.77;29.28;94769.81;4999147;28;20041;-54
2022/06/20 10:57:46;;;;;;;3.35;1.40;;;;;;;29.70;29.03;94775.38;5002011;28;20100;-59
2022/06/20 11:00:14;;;;;;;5.05;1.48;;;;;;;29.83;28.88;94772.41;4979577;28;20032;-60
2022/06/20 11:02:58;;;;;;;2.10;1.30;;;;;;;29.78;28.76;94765.78;4981135;28;20034;-51
2022/06/20 11:05:47;;;;;;;3.78;1.60;;;;;;;29.91;28.54;94768.34;5003186;28;20045;-53
2022/06/20 11:08:32;;;;;;;2.28;1.30;;;;;;;29.95;28.21;94759.69;4998619;28;20052;-52
2022/06/20 11:11:10;;;;;;;1.98;1.30;;;;;;;29.95;28.14;94754.91;5000380;28;20575;-51
2022/06/20 11:13:56;;;;;;;1.65;1.27;;;;;;;30.05;27.70;94761.28;4999022;28;20049;-51
2022/06/20 11:16:40;;;;;;;2.15;1.17;;;;;;;30.04;27.92;94754.31;4982933;28;20022;-53
2022/06/20 11:19:06;;;;;;;1.67;1.20;;;;;;;30.03;27.72;94736.34;5002576;28;20409;-50
2022/06/20 11:22:00;;;;;;;2.70;1.45;;;;;;;29.97;28.15;94737.81;4999558;28;20030;-50
2022/06/20 11:24:41;;;;;;;2.67;1.40;;;;;;;29.70;26.46;94742.31;4979798;28;20124;-50
2022/06/20 11:27:28;;;;;;;2.17;1.10;;;;;;;29.83;27.82;94740.09;4998039;28;20057;-50
2022/06/20 11:30:24;;;;;;;3.88;1.40;;;;;;;29.83;27.48;94739.38;4998940;28;20176;-51
2022/06/20 11:33:08;;;;;;;2.10;1.33;;;;;;;29.82;28.13;94738.66;4995185;28;20041;-51
2022/06/20 11:36:02;;;;;;;2.47;1.27;;;;;;;29.84;28.13;94725.03;4999723;28;20457;-51
2022/06/20 11:38:40;;;;;;;3.67;1.20;;;;;;;29.74;28.27;94721.38;4980553;28;20036;-59
2022/06/20 11:41:13;;;;;;;2.53;1.40;;;;;;;29.55;28.28;94725.16;4998093;28;20109;-50
2022/06/20 11:44:06;;;;;;;2.17;1.40;;;;;;;29.57;28.24;94728.09;4986875;28;20050;-50
2022/06/20 11:46:40;;;;;;;3.05;1.40;;;;;;;29.41;28.39;94718.44;4994341;28;20424;-52
2022/06/20 11:49:33;;;;;;;3.17;1.50;;;;;;;29.38;28.93;94705.78;4999203;28;20026;-51
2022/06/20 11:52:10;;;;;;;1.40;1.00;;;;;;;29.28;28.56;94713.91;4983371;28;20022;-52
2022/06/20 11:54:37;;;;;;;2.40;1.40;;;;;;;29.19;28.90;94714.44;4981240;28;20026;-59
2022/06/20 11:57:02;;;;;;;4.03;1.33;;;;;;;29.18;29.34;94710.22;4981567;28;20021;-50
2022/06/20 11:59:46;;;;;;;1.95;0.98;;;;;;;29.14;29.13;94703.63;4998515;28;20176;-51
2022/06/20 12:02:41;;;;;;;2.85;1.27;;;;;;;29.15;28.73;94699.59;4999190;28;20049;-53
2022/06/20 12:05:06;;;;;;;2.97;1.10;;;;;;;29.05;29.16;94704.22;4975940;28;20108;-51
2022/06/20 12:07:38;;;;;;;1.92;1.27;;;;;;;29.00;28.68;94705.16;5004159;28;20136;-54
2022/06/20 12:10:22;;;;;;;1.58;1.08;;;;;;;28.90;28.68;94701.50;4986317;28;20036;-55
2022/06/20 12:12:49;;;;;;;1.73;1.20;;;;;;;28.82;29.48;94689.06;5004012;28;20100;-52
2022/06/20 12:15:21;;;;;;;1.77;1.10;;;;;;;28.79;28.88;94699.16;5005949;28;20026;-57